sensor_id;sensor_type;location;lat;lon;timestamp;pressure;altitude;pressure_sealevel;temperature;humidity
61474;BME280;53694;49.784;30.150;2023-07-09T00:00:33;99523.09;;;16.59;70.11
61474;BME280;53694;49.784;30.150;2023-07-09T00:01:34;99516.78;;;16.55;70.22
61474;BME280;53694;49.784;30.150;2023-07-09T00:02:36;99524.73;;;16.53;70.40
61474;BME280;53694;49.784;30.150;2023-07-09T00:03:37;99521.91;;;16.56;70.39
61474;BME280;53694;49.784;30.150;2023-07-09T00:04:39;99522.25;;;16.72;70.00
61474;BME280;53694;49.784;30.150;2023-07-09T00:05:41;99509.79;;;16.98;69.23
61474;BME280;53694;49.784;30.150;2023-07-09T00:06:43;99504.00;;;17.31;68.32
61474;BME280;53694;49.784;30.150;2023-07-09T00:07:45;99513.25;;;17.58;67.29
61474;BME280;53694;49.784;30.150;2023-07-09T00:08:46;99509.95;;;17.74;66.66
61474;BME280;53694;49.784;30.150;2023-07-09T00:09:49;99506.72;;;17.79;66.23
61474;BME280;53694;49.784;30.150;2023-07-09T00:10:51;99512.34;;;17.76;66.01
61474;BME280;53694;49.784;30.150;2023-07-09T00:11:52;99512.38;;;17.68;66.02
61474;BME280;53694;49.784;30.150;2023-07-09T00:12:54;99512.46;;;17.58;66.32
61474;BME280;53694;49.784;30.150;2023-07-09T00:13:55;99512.58;;;17.47;66.54
61474;BME280;53694;49.784;30.150;2023-07-09T00:14:57;99512.66;;;17.36;66.91
61474;BME280;53694;49.784;30.150;2023-07-09T00:16:01;99510.38;;;17.24;67.20
61474;BME280;53694;49.784;30.150;2023-07-09T00:17:09;99509.30;;;17.11;67.53
61474;BME280;53694;49.784;30.150;2023-07-09T00:18:11;99506.99;;;17.02;67.91
61474;BME280;53694;49.784;30.150;2023-07-09T00:19:14;99510.25;;;16.90;68.38
61474;BME280;53694;49.784;30.150;2023-07-09T00:20:17;99505.95;;;16.82;68.65
61474;BME280;53694;49.784;30.150;2023-07-09T00:21:20;99513.93;;;16.72;68.97
61474;BME280;53694;49.784;30.150;2023-07-09T00:22:22;99507.22;;;16.66;69.41
61474;BME280;53694;49.784;30.150;2023-07-09T00:23:24;99510.02;;;16.59;69.76
61474;BME280;53694;49.784;30.150;2023-07-09T00:24:25;99513.22;;;16.54;69.92
61474;BME280;53694;49.784;30.150;2023-07-09T00:25:27;99506.13;;;16.49;70.11
61474;BME280;53694;49.784;30.150;2023-07-09T00:26:28;99502.18;;;16.43;70.35
61474;BME280;53694;49.784;30.150;2023-07-09T00:27:30;99513.30;;;16.40;70.54
61474;BME280;53694;49.784;30.150;2023-07-09T00:28:31;99511.69;;;16.42;70.77
61474;BME280;53694;49.784;30.150;2023-07-09T00:29:33;99509.90;;;16.84;69.60
61474;BME280;53694;49.784;30.150;2023-07-09T00:30:35;99509.90;;;16.84;69.60
61474;BME280;53694;49.784;30.150;2023-07-09T00:31:37;99503.70;;;17.18;68.58
61474;BME280;53694;49.784;30.150;2023-07-09T00:32:38;99497.94;;;17.43;67.53
61474;BME280;53694;49.784;30.150;2023-07-09T00:33:41;99500.96;;;17.59;66.93
61474;BME280;53694;49.784;30.150;2023-07-09T00:34:43;99496.95;;;17.64;66.39
61474;BME280;53694;49.784;30.150;2023-07-09T00:35:46;99496.98;;;17.60;66.11
61474;BME280;53694;49.784;30.150;2023-07-09T00:36:48;99501.45;;;17.51;66.25
61474;BME280;53694;49.784;30.150;2023-07-09T00:37:49;99501.56;;;17.36;66.81
61474;BME280;53694;49.784;30.150;2023-07-09T00:38:51;99495.72;;;17.23;66.91
61474;BME280;53694;49.784;30.150;2023-07-09T00:39:52;99493.08;;;17.09;67.28
61474;BME280;53694;49.784;30.150;2023-07-09T00:42:03;99506.32;;;16.87;68.11
61474;BME280;53694;49.784;30.150;2023-07-09T00:43:07;99502.03;;;16.76;68.55
61474;BME280;53694;49.784;30.150;2023-07-09T00:44:27;99502.88;;;16.65;68.95
61474;BME280;53694;49.784;30.150;2023-07-09T00:45:30;99494.19;;;16.56;69.08
61474;BME280;53694;49.784;30.150;2023-07-09T00:47:57;99502.61;;;16.38;69.77
61474;BME280;53694;49.784;30.150;2023-07-09T00:49:04;99498.69;;;16.32;70.09
61474;BME280;53694;49.784;30.150;2023-07-09T00:50:15;99503.05;;;16.26;70.30
61474;BME280;53694;49.784;30.150;2023-07-09T00:51:17;99506.25;;;16.21;70.59
61474;BME280;53694;49.784;30.150;2023-07-09T00:52:28;99504.25;;;16.25;70.70
61474;BME280;53694;49.784;30.150;2023-07-09T00:53:31;99499.82;;;16.42;70.33
61474;BME280;53694;49.784;30.150;2023-07-09T00:54:36;99497.30;;;16.72;69.30
61474;BME280;53694;49.784;30.150;2023-07-09T00:55:40;99495.45;;;17.07;68.43
61474;BME280;53694;49.784;30.150;2023-07-09T00:56:44;99497.91;;;17.46;67.19
61474;BME280;53694;49.784;30.150;2023-07-09T00:57:49;99492.05;;;17.79;65.93
61474;BME280;53694;49.784;30.150;2023-07-09T00:58:54;99492.27;;;17.95;65.00
61474;BME280;53694;49.784;30.150;2023-07-09T01:00:03;99498.21;;;17.97;64.56
61474;BME280;53694;49.784;30.150;2023-07-09T01:01:09;99502.62;;;17.91;64.42
61474;BME280;53694;49.784;30.150;2023-07-09T01:02:10;99494.86;;;17.75;64.76
61474;BME280;53694;49.784;30.150;2023-07-09T01:04:33;99495.56;;;17.41;65.53
61474;BME280;53694;49.784;30.150;2023-07-09T01:05:36;99498.94;;;17.18;66.18
61474;BME280;53694;49.784;30.150;2023-07-09T01:06:45;99495.11;;;17.02;66.78
61474;BME280;53694;49.784;30.150;2023-07-09T01:07:46;99501.95;;;16.86;67.23
61474;BME280;53694;49.784;30.150;2023-07-09T01:08:48;99500.06;;;16.72;67.91
61474;BME280;53694;49.784;30.150;2023-07-09T01:09:50;99505.25;;;16.63;68.38
61474;BME280;53694;49.784;30.150;2023-07-09T01:10:52;99509.66;;;16.54;68.83
61474;BME280;53694;49.784;30.150;2023-07-09T01:11:53;99504.56;;;16.45;69.11
61474;BME280;53694;49.784;30.150;2023-07-09T01:12:55;99508.56;;;16.37;69.47
61474;BME280;53694;49.784;30.150;2023-07-09T01:14:01;99505.03;;;16.29;69.83
61474;BME280;53694;49.784;30.150;2023-07-09T01:15:02;99503.06;;;16.22;70.10
61474;BME280;53694;49.784;30.150;2023-07-09T01:16:04;99507.09;;;16.14;70.34
61474;BME280;53694;49.784;30.150;2023-07-09T01:17:07;99515.00;;;16.09;70.85
61474;BME280;53694;49.784;30.150;2023-07-09T01:18:10;99504.33;;;16.11;71.03
61474;BME280;53694;49.784;30.150;2023-07-09T01:19:12;99513.35;;;16.25;70.74
61474;BME280;53694;49.784;30.150;2023-07-09T01:20:19;99508.11;;;16.49;70.03
61474;BME280;53694;49.784;30.150;2023-07-09T01:21:21;99507.56;;;16.79;69.22
61474;BME280;53694;49.784;30.150;2023-07-09T01:22:23;99501.74;;;17.15;67.86
61474;BME280;53694;49.784;30.150;2023-07-09T01:23:25;99499.48;;;17.47;66.88
61474;BME280;53694;49.784;30.150;2023-07-09T01:25:52;99501.12;;;17.83;65.07
61474;BME280;53694;49.784;30.150;2023-07-09T01:26:53;99504.36;;;17.78;64.81
61474;BME280;53694;49.784;30.150;2023-07-09T01:27:55;99506.03;;;17.68;65.01
61474;BME280;53694;49.784;30.150;2023-07-09T01:28:57;99511.70;;;17.54;65.16
61474;BME280;53694;49.784;30.150;2023-07-09T01:30:01;99502.77;;;17.35;65.44
61474;BME280;53694;49.784;30.150;2023-07-09T01:31:03;99510.46;;;17.17;65.88
61474;BME280;53694;49.784;30.150;2023-07-09T01:32:04;99511.78;;;16.98;66.52
61474;BME280;53694;49.784;30.150;2023-07-09T01:33:07;99512.30;;;16.82;67.09
61474;BME280;53694;49.784;30.150;2023-07-09T01:34:08;99515.12;;;16.68;67.64
61474;BME280;53694;49.784;30.150;2023-07-09T01:35:10;99518.35;;;16.56;68.19
61474;BME280;53694;49.784;30.150;2023-07-09T01:36:20;99516.45;;;16.42;68.60
61474;BME280;53694;49.784;30.150;2023-07-09T01:37:26;99518.09;;;16.29;69.05
61474;BME280;53694;49.784;30.150;2023-07-09T01:38:28;99518.54;;;16.16;69.54
61474;BME280;53694;49.784;30.150;2023-07-09T01:39:30;99516.61;;;16.06;70.09
61474;BME280;53694;49.784;30.150;2023-07-09T01:40:32;99521.37;;;15.98;70.31
61474;BME280;53694;49.784;30.150;2023-07-09T01:41:33;99520.19;;;15.92;70.65
61474;BME280;53694;49.784;30.150;2023-07-09T01:42:36;99519.81;;;15.94;70.85
61474;BME280;53694;49.784;30.150;2023-07-09T01:43:38;99519.75;;;16.08;70.63
61474;BME280;53694;49.784;30.150;2023-07-09T01:44:39;99525.20;;;16.33;70.08
61474;BME280;53694;49.784;30.150;2023-07-09T01:45:41;99517.12;;;16.64;69.18
61474;BME280;53694;49.784;30.150;2023-07-09T01:46:42;99513.77;;;16.97;68.06
61474;BME280;53694;49.784;30.150;2023-07-09T01:47:44;99507.98;;;17.30;66.64
61474;BME280;53694;49.784;30.150;2023-07-09T01:48:45;99503.38;;;17.54;65.66
61474;BME280;53694;49.784;30.150;2023-07-09T01:49:47;99506.84;;;17.65;64.98
61474;BME280;53694;49.784;30.150;2023-07-09T01:50:49;99506.84;;;17.65;64.69
61474;BME280;53694;49.784;30.150;2023-07-09T01:51:50;99512.61;;;17.43;64.78
61474;BME280;53694;49.784;30.150;2023-07-09T01:52:53;99512.61;;;17.43;64.78
61474;BME280;53694;49.784;30.150;2023-07-09T01:53:55;99513.92;;;17.28;65.20
61474;BME280;53694;49.784;30.150;2023-07-09T01:54:56;99506.16;;;17.09;65.67
61474;BME280;53694;49.784;30.150;2023-07-09T01:55:58;99506.67;;;16.93;66.06
61474;BME280;53694;49.784;30.150;2023-07-09T01:57:14;99520.24;;;16.77;66.64
61474;BME280;53694;49.784;30.150;2023-07-09T01:58:17;99525.07;;;16.62;67.03
61474;BME280;53694;49.784;30.150;2023-07-09T01:59:18;99521.58;;;16.43;67.59
61474;BME280;53694;49.784;30.150;2023-07-09T02:00:20;99516.90;;;16.30;68.15
61474;BME280;53694;49.784;30.150;2023-07-09T02:01:21;99522.88;;;16.17;68.72
61474;BME280;53694;49.784;30.150;2023-07-09T02:02:23;99522.52;;;16.08;69.16
61474;BME280;53694;49.784;30.150;2023-07-09T02:03:24;99518.61;;;15.98;69.58
61474;BME280;53694;49.784;30.150;2023-07-09T02:04:26;99533.25;;;15.92;69.82
61474;BME280;53694;49.784;30.150;2023-07-09T02:05:30;99519.83;;;15.83;70.19
61474;BME280;53694;49.784;30.150;2023-07-09T02:06:32;99524.20;;;15.77;70.48
61474;BME280;53694;49.784;30.150;2023-07-09T02:07:33;99521.84;;;15.72;70.73
61474;BME280;53694;49.784;30.150;2023-07-09T02:08:35;99524.20;;;15.73;70.84
61474;BME280;53694;49.784;30.150;2023-07-09T02:09:37;99490.94;;;15.88;70.48
61474;BME280;53694;49.784;30.150;2023-07-09T02:10:38;99527.27;;;16.11;69.92
61474;BME280;53694;49.784;30.150;2023-07-09T02:11:40;99535.44;;;16.43;68.80
61474;BME280;53694;49.784;30.150;2023-07-09T02:12:41;99525.00;;;16.76;67.67
61474;BME280;53694;49.784;30.150;2023-07-09T02:13:43;99515.31;;;17.02;66.52
61474;BME280;53694;49.784;30.150;2023-07-09T02:14:45;99527.11;;;17.17;65.86
61474;BME280;53694;49.784;30.150;2023-07-09T02:15:47;99521.92;;;17.19;65.58
61474;BME280;53694;49.784;30.150;2023-07-09T02:16:49;99520.02;;;17.12;65.59
61474;BME280;53694;49.784;30.150;2023-07-09T02:17:50;99532.75;;;17.03;65.73
61474;BME280;53694;49.784;30.150;2023-07-09T02:18:51;99527.67;;;16.90;65.87
61474;BME280;53694;49.784;30.150;2023-07-09T02:19:53;99525.42;;;16.74;66.27
61474;BME280;53694;49.784;30.150;2023-07-09T02:20:55;99531.78;;;16.61;66.89
61474;BME280;53694;49.784;30.150;2023-07-09T02:21:57;99536.21;;;16.47;67.23
61474;BME280;53694;49.784;30.150;2023-07-09T02:22:58;99535.49;;;16.36;67.56
61474;BME280;53694;49.784;30.150;2023-07-09T02:24:00;99533.95;;;16.24;68.02
61474;BME280;53694;49.784;30.150;2023-07-09T02:25:02;99540.33;;;16.14;68.47
61474;BME280;53694;49.784;30.150;2023-07-09T02:26:04;99538.37;;;16.04;68.89
61474;BME280;53694;49.784;30.150;2023-07-09T02:27:07;99535.61;;;15.97;69.08
61474;BME280;53694;49.784;30.150;2023-07-09T02:28:09;99537.22;;;15.87;69.41
61474;BME280;53694;49.784;30.150;2023-07-09T02:29:11;99537.26;;;15.80;69.74
61474;BME280;53694;49.784;30.150;2023-07-09T02:30:12;99534.50;;;15.73;70.06
61474;BME280;53694;49.784;30.150;2023-07-09T02:31:14;99536.48;;;15.65;70.22
61474;BME280;53694;49.784;30.150;2023-07-09T02:32:23;99541.20;;;15.61;70.54
61474;BME280;53694;49.784;30.150;2023-07-09T02:33:25;99538.02;;;15.63;70.84
61474;BME280;53694;49.784;30.150;2023-07-09T02:34:27;99543.17;;;15.79;70.54
61474;BME280;53694;49.784;30.150;2023-07-09T02:35:29;99541.14;;;16.04;70.04
61474;BME280;53694;49.784;30.150;2023-07-09T02:36:31;99539.43;;;16.35;68.96
61474;BME280;53694;49.784;30.150;2023-07-09T02:37:32;99545.62;;;16.68;68.16
61474;BME280;53694;49.784;30.150;2023-07-09T02:38:34;99534.34;;;17.04;66.64
61474;BME280;53694;49.784;30.150;2023-07-09T02:39:35;99528.55;;;17.32;65.35
61474;BME280;53694;49.784;30.150;2023-07-09T02:40:38;99530.83;;;17.44;64.75
61474;BME280;53694;49.784;30.150;2023-07-09T02:41:40;99527.66;;;17.46;64.17
61474;BME280;53694;49.784;30.150;2023-07-09T02:42:42;99533.27;;;17.39;64.21
61474;BME280;53694;49.784;30.150;2023-07-09T02:43:43;99531.77;;;17.27;64.29
61474;BME280;53694;49.784;30.150;2023-07-09T02:44:45;99531.50;;;17.11;64.77
61474;BME280;53694;49.784;30.150;2023-07-09T02:45:47;99534.39;;;16.96;65.04
61474;BME280;53694;49.784;30.150;2023-07-09T02:46:48;99534.51;;;16.79;65.64
61474;BME280;53694;49.784;30.150;2023-07-09T02:47:50;99542.86;;;16.64;66.06
61474;BME280;53694;49.784;30.150;2023-07-09T02:48:52;99538.97;;;16.51;66.62
61474;BME280;53694;49.784;30.150;2023-07-09T02:49:53;99548.14;;;16.37;67.12
61474;BME280;53694;49.784;30.150;2023-07-09T02:50:55;99541.84;;;16.26;67.53
61474;BME280;53694;49.784;30.150;2023-07-09T02:51:56;99547.44;;;16.15;67.98
61474;BME280;53694;49.784;30.150;2023-07-09T02:52:58;99550.23;;;16.05;68.36
61474;BME280;53694;49.784;30.150;2023-07-09T02:54:01;99536.02;;;15.95;68.81
61474;BME280;53694;49.784;30.150;2023-07-09T02:55:03;99541.19;;;15.86;69.10
61474;BME280;53694;49.784;30.150;2023-07-09T02:56:04;99542.80;;;15.80;69.43
61474;BME280;53694;49.784;30.150;2023-07-09T02:57:06;99540.81;;;15.73;69.72
61474;BME280;53694;49.784;30.150;2023-07-09T02:58:08;99542.02;;;15.69;70.04
61474;BME280;53694;49.784;30.150;2023-07-09T02:59:09;99545.54;;;15.62;70.45
61474;BME280;53694;49.784;30.150;2023-07-09T03:00:11;99542.77;;;15.59;70.80
61474;BME280;53694;49.784;30.150;2023-07-09T03:01:13;99545.16;;;15.60;70.91
61474;BME280;53694;49.784;30.150;2023-07-09T03:02:15;99541.20;;;15.75;70.70
61474;BME280;53694;49.784;30.150;2023-07-09T03:03:16;99549.07;;;16.02;69.98
61474;BME280;53694;49.784;30.150;2023-07-09T03:04:18;99540.62;;;16.34;69.22
61474;BME280;53694;49.784;30.150;2023-07-09T03:05:20;99544.05;;;16.67;67.95
61474;BME280;53694;49.784;30.150;2023-07-09T03:06:22;99537.58;;;16.95;66.84
61474;BME280;53694;49.784;30.150;2023-07-09T03:07:24;99541.45;;;17.08;66.29
61474;BME280;53694;49.784;30.150;2023-07-09T03:08:25;99539.02;;;17.14;65.97
61474;BME280;53694;49.784;30.150;2023-07-09T03:09:27;99543.80;;;17.10;65.74
61474;BME280;53694;49.784;30.150;2023-07-09T03:10:29;99544.26;;;17.01;65.56
61474;BME280;53694;49.784;30.150;2023-07-09T03:11:32;99535.23;;;16.86;65.98
61474;BME280;53694;49.784;30.150;2023-07-09T03:12:34;99528.59;;;16.69;66.45
61474;BME280;53694;49.784;30.150;2023-07-09T03:13:35;99536.97;;;16.55;67.01
61474;BME280;53694;49.784;30.150;2023-07-09T03:14:37;99537.05;;;16.41;67.46
61474;BME280;53694;49.784;30.150;2023-07-09T03:15:38;99540.27;;;16.29;67.95
61474;BME280;53694;49.784;30.150;2023-07-09T03:16:40;99556.91;;;16.18;68.37
61474;BME280;53694;49.784;30.150;2023-07-09T03:17:41;99541.13;;;16.08;68.87
61474;BME280;53694;49.784;30.150;2023-07-09T03:18:43;99538.78;;;15.99;69.09
61474;BME280;53694;49.784;30.150;2023-07-09T03:19:44;99540.40;;;15.89;69.31
61474;BME280;53694;49.784;30.150;2023-07-09T03:20:46;99531.72;;;15.80;69.77
61474;BME280;53694;49.784;30.150;2023-07-09T03:21:47;99538.84;;;15.74;70.14
61474;BME280;53694;49.784;30.150;2023-07-09T03:22:49;99530.53;;;15.67;70.37
61474;BME280;53694;49.784;30.150;2023-07-09T03:23:51;99525.38;;;15.62;70.91
61474;BME280;53694;49.784;30.150;2023-07-09T03:24:52;99525.38;;;15.62;70.91
61474;BME280;53694;49.784;30.150;2023-07-09T03:25:55;99533.70;;;15.76;70.78
61474;BME280;53694;49.784;30.150;2023-07-09T03:26:57;99528.89;;;16.02;70.34
61474;BME280;53694;49.784;30.150;2023-07-09T03:27:58;99533.89;;;16.35;69.42
61474;BME280;53694;49.784;30.150;2023-07-09T03:29:00;99532.16;;;16.70;68.19
61474;BME280;53694;49.784;30.150;2023-07-09T03:30:02;99535.92;;;17.05;67.11
61474;BME280;53694;49.784;30.150;2023-07-09T03:31:03;99524.60;;;17.33;65.86
61474;BME280;53694;49.784;30.150;2023-07-09T03:32:05;99522.89;;;17.46;65.02
61474;BME280;53694;49.784;30.150;2023-07-09T03:33:07;99526.03;;;17.48;64.67
61474;BME280;53694;49.784;30.150;2023-07-09T03:34:09;99527.30;;;17.40;64.71
61474;BME280;53694;49.784;30.150;2023-07-09T03:35:10;99528.19;;;17.30;64.89
61474;BME280;53694;49.784;30.150;2023-07-09T03:36:12;99526.34;;;17.13;65.19
61474;BME280;53694;49.784;30.150;2023-07-09T03:37:14;99531.61;;;16.96;65.73
61474;BME280;53694;49.784;30.150;2023-07-09T03:38:15;99535.30;;;16.79;66.44
61474;BME280;53694;49.784;30.150;2023-07-09T03:39:17;99541.69;;;16.65;66.63
61474;BME280;53694;49.784;30.150;2023-07-09T03:40:22;99536.98;;;16.52;67.12
61474;BME280;53694;49.784;30.150;2023-07-09T03:41:24;99534.66;;;16.39;67.66
61474;BME280;53694;49.784;30.150;2023-07-09T03:42:26;99537.08;;;16.30;68.03
61474;BME280;53694;49.784;30.150;2023-07-09T03:43:27;99541.48;;;16.20;68.37
61474;BME280;53694;49.784;30.150;2023-07-09T03:44:29;99547.86;;;16.10;68.79
61474;BME280;53694;49.784;30.150;2023-07-09T03:45:31;99533.62;;;16.01;69.08
61474;BME280;53694;49.784;30.150;2023-07-09T03:46:33;99536.42;;;15.94;69.60
61474;BME280;53694;49.784;30.150;2023-07-09T03:47:34;99537.22;;;15.87;69.89
61474;BME280;53694;49.784;30.150;2023-07-09T03:48:36;99540.41;;;15.82;70.04
61474;BME280;53694;49.784;30.150;2023-07-09T03:49:38;99536.44;;;15.80;70.26
61474;BME280;53694;49.784;30.150;2023-07-09T03:50:39;99526.97;;;15.77;70.50
61474;BME280;53694;49.784;30.150;2023-07-09T03:51:42;99520.66;;;15.66;70.40
61474;BME280;53694;49.784;30.150;2023-07-09T03:52:43;99540.36;;;15.96;70.27
61474;BME280;53694;49.784;30.150;2023-07-09T03:53:45;99537.50;;;16.25;69.67
61474;BME280;53694;49.784;30.150;2023-07-09T03:54:46;99532.05;;;16.91;67.47
61474;BME280;53694;49.784;30.150;2023-07-09T03:55:54;99532.05;;;16.91;67.47
61474;BME280;53694;49.784;30.150;2023-07-09T03:56:56;99526.27;;;17.20;66.49
61474;BME280;53694;49.784;30.150;2023-07-09T03:57:58;99533.27;;;17.39;65.70
61474;BME280;53694;49.784;30.150;2023-07-09T03:58:59;99531.25;;;17.43;65.09
61474;BME280;53694;49.784;30.150;2023-07-09T04:00:02;99529.00;;;17.27;64.68
61474;BME280;53694;49.784;30.150;2023-07-09T04:01:05;99529.00;;;17.27;64.68
61474;BME280;53694;49.784;30.150;2023-07-09T04:02:06;99535.04;;;17.15;65.27
61474;BME280;53694;49.784;30.150;2023-07-09T04:03:08;99536.72;;;17.02;65.51
61474;BME280;53694;49.784;30.150;2023-07-09T04:04:09;99535.63;;;16.88;65.93
61474;BME280;53694;49.784;30.150;2023-07-09T04:05:11;99527.41;;;16.74;66.41
61474;BME280;53694;49.784;30.150;2023-07-09T04:06:13;99541.70;;;16.62;66.72
61474;BME280;53694;49.784;30.150;2023-07-09T04:07:15;99535.81;;;16.53;67.37
61474;BME280;53694;49.784;30.150;2023-07-09T04:08:17;99539.41;;;16.42;67.86
61474;BME280;53694;49.784;30.150;2023-07-09T04:09:18;99539.43;;;16.35;67.99
61474;BME280;53694;49.784;30.150;2023-07-09T04:10:20;99535.14;;;16.27;68.23
61474;BME280;53694;49.784;30.150;2023-07-09T04:11:21;99537.92;;;16.20;68.50
61474;BME280;53694;49.784;30.150;2023-07-09T04:12:23;99533.97;;;16.14;68.85
61474;BME280;53694;49.784;30.150;2023-07-09T04:13:24;99537.16;;;16.09;69.22
61474;BME280;53694;49.784;30.150;2023-07-09T04:14:26;99539.16;;;16.05;68.93
61474;BME280;53694;49.784;30.150;2023-07-09T04:15:27;99541.92;;;16.01;69.25
61474;BME280;53694;49.784;30.150;2023-07-09T04:16:29;99542.75;;;15.98;69.47
61474;BME280;53694;49.784;30.150;2023-07-09T04:17:31;99535.61;;;15.97;69.55
61474;BME280;53694;49.784;30.150;2023-07-09T04:18:32;99535.64;;;15.93;70.22
61474;BME280;53694;49.784;30.150;2023-07-09T04:19:33;99535.64;;;15.93;70.22
61474;BME280;53694;49.784;30.150;2023-07-09T04:20:35;99541.18;;;15.93;70.15
61474;BME280;53694;49.784;30.150;2023-07-09T04:21:36;99543.13;;;16.00;70.11
61474;BME280;53694;49.784;30.150;2023-07-09T04:22:38;99543.87;;;16.18;69.75
61474;BME280;53694;49.784;30.150;2023-07-09T04:23:39;99540.59;;;16.48;69.06
61474;BME280;53694;49.784;30.150;2023-07-09T04:24:41;99532.89;;;16.81;67.81
61474;BME280;53694;49.784;30.150;2023-07-09T04:25:43;99528.73;;;17.11;66.76
61474;BME280;53694;49.784;30.150;2023-07-09T04:26:45;99532.53;;;17.31;65.66
61474;BME280;53694;49.784;30.150;2023-07-09T04:27:47;99541.98;;;17.37;65.45
61474;BME280;53694;49.784;30.150;2023-07-09T04:28:48;99538.42;;;17.37;65.36
61474;BME280;53694;49.784;30.150;2023-07-09T04:29:50;99548.77;;;17.33;65.48
61474;BME280;53694;49.784;30.150;2023-07-09T04:30:52;99541.30;;;17.26;65.70
61474;BME280;53694;49.784;30.150;2023-07-09T04:31:53;99532.66;;;17.17;65.92
61474;BME280;53694;49.784;30.150;2023-07-09T04:32:54;99539.06;;;17.07;66.20
61474;BME280;53694;49.784;30.150;2023-07-09T04:33:56;99547.45;;;16.99;66.56
61474;BME280;53694;49.784;30.150;2023-07-09T04:34:58;99548.69;;;16.91;66.81
61474;BME280;53694;49.784;30.150;2023-07-09T04:35:59;99543.18;;;16.84;66.93
61474;BME280;53694;49.784;30.150;2023-07-09T04:37:01;99550.36;;;16.78;67.19
61474;BME280;53694;49.784;30.150;2023-07-09T04:38:02;99553.53;;;16.73;67.56
61474;BME280;53694;49.784;30.150;2023-07-09T04:39:04;99553.55;;;16.69;67.76
61474;BME280;53694;49.784;30.150;2023-07-09T04:40:07;99554.35;;;16.66;67.71
61474;BME280;53694;49.784;30.150;2023-07-09T04:41:09;99548.03;;;16.62;68.02
61474;BME280;53694;49.784;30.150;2023-07-09T04:42:12;99552.01;;;16.61;68.17
61474;BME280;53694;49.784;30.150;2023-07-09T04:43:14;99550.41;;;16.60;68.18
61474;BME280;53694;49.784;30.150;2023-07-09T04:44:16;99553.59;;;16.59;68.04
61474;BME280;53694;49.784;30.150;2023-07-09T04:45:17;99550.82;;;16.59;67.97
61474;BME280;53694;49.784;30.150;2023-07-09T04:46:19;99557.56;;;16.58;68.01
61474;BME280;53694;49.784;30.150;2023-07-09T04:47:20;99555.99;;;16.57;68.14
61474;BME280;53694;49.784;30.150;2023-07-09T04:48:22;99554.39;;;16.56;68.43
61474;BME280;53694;49.784;30.150;2023-07-09T04:49:23;99555.99;;;16.57;68.23
61474;BME280;53694;49.784;30.150;2023-07-09T04:50:25;99557.56;;;16.58;68.43
61474;BME280;53694;49.784;30.150;2023-07-09T04:51:27;99553.59;;;16.59;68.47
61474;BME280;53694;49.784;30.150;2023-07-09T04:52:28;99548.05;;;16.59;68.17
61474;BME280;53694;49.784;30.150;2023-07-09T04:53:30;99545.27;;;16.59;67.94
61474;BME280;53694;49.784;30.150;2023-07-09T04:54:32;99552.80;;;16.58;68.19
61474;BME280;53694;49.784;30.150;2023-07-09T04:55:33;99551.61;;;16.59;68.09
61474;BME280;53694;49.784;30.150;2023-07-09T04:56:35;99544.08;;;16.60;68.16
61474;BME280;53694;49.784;30.150;2023-07-09T04:57:37;99547.25;;;16.62;67.99
61474;BME280;53694;49.784;30.150;2023-07-09T04:58:38;99544.47;;;16.62;68.10
61474;BME280;53694;49.784;30.150;2023-07-09T04:59:40;99545.63;;;16.64;67.89
61474;BME280;53694;49.784;30.150;2023-07-09T05:00:42;99542.47;;;16.66;67.92
61474;BME280;53694;49.784;30.150;2023-07-09T05:01:43;99543.26;;;16.66;67.94
61474;BME280;53694;49.784;30.150;2023-07-09T05:02:45;99546.41;;;16.68;67.99
61474;BME280;53694;49.784;30.150;2023-07-09T05:03:46;99544.81;;;16.71;68.27
61474;BME280;53694;49.784;30.150;2023-07-09T05:04:48;99547.20;;;16.72;67.97
61474;BME280;53694;49.784;30.150;2023-07-09T05:05:50;99547.20;;;16.72;67.92
61474;BME280;53694;49.784;30.150;2023-07-09T05:06:51;99547.61;;;16.74;68.03
61474;BME280;53694;49.784;30.150;2023-07-09T05:07:53;99547.19;;;16.76;68.18
61474;BME280;53694;49.784;30.150;2023-07-09T05:08:55;99540.44;;;16.77;67.75
61474;BME280;53694;49.784;30.150;2023-07-09T05:09:56;99540.05;;;16.79;67.76
61474;BME280;53694;49.784;30.150;2023-07-09T05:10:58;99540.42;;;16.81;67.80
61474;BME280;53694;49.784;30.150;2023-07-09T05:11:59;99544.77;;;16.82;67.50
61474;BME280;53694;49.784;30.150;2023-07-09T05:13:01;99547.16;;;16.83;67.32
61474;BME280;53694;49.784;30.150;2023-07-09T05:14:03;99540.41;;;16.84;67.04
61474;BME280;53694;49.784;30.150;2023-07-09T05:15:05;99539.20;;;16.85;67.14
61474;BME280;53694;49.784;30.150;2023-07-09T05:16:07;99536.83;;;16.87;67.21
61474;BME280;53694;49.784;30.150;2023-07-09T05:17:09;99542.75;;;16.89;67.16
61474;BME280;53694;49.784;30.150;2023-07-09T05:18:14;99547.91;;;16.91;66.66
61474;BME280;53694;49.784;30.150;2023-07-09T05:19:15;99548.27;;;16.93;66.90
61474;BME280;53694;49.784;30.150;2023-07-09T05:20:17;99545.08;;;16.94;66.82
61474;BME280;53694;49.784;30.150;2023-07-09T05:21:19;99539.94;;;16.96;66.74
61474;BME280;53694;49.784;30.150;2023-07-09T05:22:20;99546.64;;;16.99;66.90
61474;BME280;53694;49.784;30.150;2023-07-09T05:23:24;99543.84;;;17.03;67.00
61474;BME280;53694;49.784;30.150;2023-07-09T05:24:26;99544.23;;;17.05;66.79
61474;BME280;53694;49.784;30.150;2023-07-09T05:25:27;99539.84;;;17.07;66.76
61474;BME280;53694;49.784;30.150;2023-07-09T05:26:29;99534.27;;;17.11;66.49
61474;BME280;53694;49.784;30.150;2023-07-09T05:27:31;99537.45;;;17.13;66.44
61474;BME280;53694;49.784;30.150;2023-07-09T05:28:32;99537.81;;;17.15;66.11
61474;BME280;53694;49.784;30.150;2023-07-09T05:29:34;99546.53;;;17.17;65.95
61474;BME280;53694;49.784;30.150;2023-07-09T05:30:36;99548.47;;;17.20;66.21